sensor_id;sensor_type;location;lat;lon;timestamp;temperature;humidity
44277;DHT22;29973;43.742;1.236;2023-03-14T00:00:59;9.50;99.90
44277;DHT22;29973;43.742;1.236;2023-03-14T00:03:27;9.90;99.90
44277;DHT22;29973;43.742;1.236;2023-03-14T00:05:53;9.70;99.90
44277;DHT22;29973;43.742;1.236;2023-03-14T00:08:24;9.60;99.90
44277;DHT22;29973;43.742;1.236;2023-03-14T00:10:52;9.60;99.90
44277;DHT22;29973;43.742;1.236;2023-03-14T00:13:17;9.40;99.90
44277;DHT22;29973;43.742;1.236;2023-03-14T00:15:43;9.30;99.90
44277;DHT22;29973;43.742;1.236;2023-03-14T00:18:09;9.00;99.90
44277;DHT22;29973;43.742;1.236;2023-03-14T00:20:36;9.00;99.90
44277;DHT22;29973;43.742;1.236;2023-03-14T00:23:01;9.00;99.90
44277;DHT22;29973;43.742;1.236;2023-03-14T00:25:28;9.20;99.90
44277;DHT22;29973;43.742;1.236;2023-03-14T00:27:53;9.50;99.90
44277;DHT22;29973;43.742;1.236;2023-03-14T00:30:19;9.50;99.90
44277;DHT22;29973;43.742;1.236;2023-03-14T00:32:45;9.50;99.90
44277;DHT22;29973;43.742;1.236;2023-03-14T00:35:11;9.60;99.90
44277;DHT22;29973;43.742;1.236;2023-03-14T00:37:37;9.50;99.90
44277;DHT22;29973;43.742;1.236;2023-03-14T00:40:07;9.30;99.90
44277;DHT22;29973;43.742;1.236;2023-03-14T00:42:34;9.00;99.90
44277;DHT22;29973;43.742;1.236;2023-03-14T00:45:00;8.80;99.90
44277;DHT22;29973;43.742;1.236;2023-03-14T00:47:26;8.80;99.90
44277;DHT22;29973;43.742;1.236;2023-03-14T00:49:52;8.70;99.90
44277;DHT22;29973;43.742;1.236;2023-03-14T00:52:17;8.70;99.90
44277;DHT22;29973;43.742;1.236;2023-03-14T00:54:43;9.00;99.90
44277;DHT22;29973;43.742;1.236;2023-03-14T00:57:09;9.20;99.90
44277;DHT22;29973;43.742;1.236;2023-03-14T00:59:35;9.50;99.90
44277;DHT22;29973;43.742;1.236;2023-03-14T01:02:00;9.40;99.90
44277;DHT22;29973;43.742;1.236;2023-03-14T01:04:26;9.70;99.90
44277;DHT22;29973;43.742;1.236;2023-03-14T01:06:52;9.60;99.90
44277;DHT22;29973;43.742;1.236;2023-03-14T01:09:20;9.80;99.90
44277;DHT22;29973;43.742;1.236;2023-03-14T01:11:47;10.20;99.90
44277;DHT22;29973;43.742;1.236;2023-03-14T01:14:14;10.20;99.90
44277;DHT22;29973;43.742;1.236;2023-03-14T01:16:40;10.20;99.90
44277;DHT22;29973;43.742;1.236;2023-03-14T01:19:06;10.70;99.90
44277;DHT22;29973;43.742;1.236;2023-03-14T01:21:33;10.90;99.90
44277;DHT22;29973;43.742;1.236;2023-03-14T01:24:01;10.80;99.90
44277;DHT22;29973;43.742;1.236;2023-03-14T01:26:30;10.80;99.90
44277;DHT22;29973;43.742;1.236;2023-03-14T01:28:56;10.80;99.90
44277;DHT22;29973;43.742;1.236;2023-03-14T01:31:23;10.80;99.90
44277;DHT22;29973;43.742;1.236;2023-03-14T01:33:50;10.90;99.90
44277;DHT22;29973;43.742;1.236;2023-03-14T01:36:16;11.30;99.90
44277;DHT22;29973;43.742;1.236;2023-03-14T01:38:43;11.30;99.90
44277;DHT22;29973;43.742;1.236;2023-03-14T01:41:17;11.30;99.90
44277;DHT22;29973;43.742;1.236;2023-03-14T01:43:44;11.30;99.90
44277;DHT22;29973;43.742;1.236;2023-03-14T01:46:34;11.30;99.90
44277;DHT22;29973;43.742;1.236;2023-03-14T01:54:24;11.40;99.90
44277;DHT22;29973;43.742;1.236;2023-03-14T01:57:18;11.50;99.90
44277;DHT22;29973;43.742;1.236;2023-03-14T01:59:48;11.40;99.90
44277;DHT22;29973;43.742;1.236;2023-03-14T02:02:17;11.40;99.90
44277;DHT22;29973;43.742;1.236;2023-03-14T02:04:44;11.50;99.90
44277;DHT22;29973;43.742;1.236;2023-03-14T02:07:20;11.40;99.90
44277;DHT22;29973;43.742;1.236;2023-03-14T02:09:49;11.40;99.90
44277;DHT22;29973;43.742;1.236;2023-03-14T02:12:18;11.30;99.90
44277;DHT22;29973;43.742;1.236;2023-03-14T02:14:45;11.40;99.90
44277;DHT22;29973;43.742;1.236;2023-03-14T02:17:16;11.50;99.90
44277;DHT22;29973;43.742;1.236;2023-03-14T02:22:45;11.30;99.90
44277;DHT22;29973;43.742;1.236;2023-03-14T02:25:39;11.30;99.90
44277;DHT22;29973;43.742;1.236;2023-03-14T02:28:06;11.30;99.90
44277;DHT22;29973;43.742;1.236;2023-03-14T02:30:32;11.10;99.90
44277;DHT22;29973;43.742;1.236;2023-03-14T02:35:32;10.90;99.90
44277;DHT22;29973;43.742;1.236;2023-03-14T02:40:44;10.40;99.90
44277;DHT22;29973;43.742;1.236;2023-03-14T02:43:11;10.10;99.90
44277;DHT22;29973;43.742;1.236;2023-03-14T02:45:43;10.00;99.90
44277;DHT22;29973;43.742;1.236;2023-03-14T02:50:45;10.00;99.90
44277;DHT22;29973;43.742;1.236;2023-03-14T02:53:13;10.10;99.90
44277;DHT22;29973;43.742;1.236;2023-03-14T02:55:45;10.50;99.90
44277;DHT22;29973;43.742;1.236;2023-03-14T02:58:11;10.50;99.90
44277;DHT22;29973;43.742;1.236;2023-03-14T03:00:37;10.70;99.90
44277;DHT22;29973;43.742;1.236;2023-03-14T03:03:03;10.80;99.90
44277;DHT22;29973;43.742;1.236;2023-03-14T03:05:31;10.80;99.90
44277;DHT22;29973;43.742;1.236;2023-03-14T03:07:57;10.90;99.90
44277;DHT22;29973;43.742;1.236;2023-03-14T03:10:23;11.00;99.90
44277;DHT22;29973;43.742;1.236;2023-03-14T03:12:49;10.70;99.90
44277;DHT22;29973;43.742;1.236;2023-03-14T03:15:17;10.80;99.90
44277;DHT22;29973;43.742;1.236;2023-03-14T03:17:44;10.70;99.90
44277;DHT22;29973;43.742;1.236;2023-03-14T03:20:10;10.70;99.90
44277;DHT22;29973;43.742;1.236;2023-03-14T03:22:38;10.30;99.90
44277;DHT22;29973;43.742;1.236;2023-03-14T03:25:05;9.90;99.90
44277;DHT22;29973;43.742;1.236;2023-03-14T03:27:32;9.70;99.90
44277;DHT22;29973;43.742;1.236;2023-03-14T03:29:59;9.80;99.90
44277;DHT22;29973;43.742;1.236;2023-03-14T03:32:25;9.80;99.90
44277;DHT22;29973;43.742;1.236;2023-03-14T03:34:51;9.70;99.90
44277;DHT22;29973;43.742;1.236;2023-03-14T03:37:18;9.50;99.90
44277;DHT22;29973;43.742;1.236;2023-03-14T03:39:51;9.50;99.90
44277;DHT22;29973;43.742;1.236;2023-03-14T03:42:18;9.30;99.90
44277;DHT22;29973;43.742;1.236;2023-03-14T03:44:44;9.30;99.90
44277;DHT22;29973;43.742;1.236;2023-03-14T03:47:10;9.40;99.90
44277;DHT22;29973;43.742;1.236;2023-03-14T03:49:36;9.40;99.90
44277;DHT22;29973;43.742;1.236;2023-03-14T03:52:01;9.30;99.90
44277;DHT22;29973;43.742;1.236;2023-03-14T03:54:27;9.30;99.90
44277;DHT22;29973;43.742;1.236;2023-03-14T03:56:54;9.20;99.90
44277;DHT22;29973;43.742;1.236;2023-03-14T03:59:21;9.10;99.90
44277;DHT22;29973;43.742;1.236;2023-03-14T04:01:47;8.90;99.90
44277;DHT22;29973;43.742;1.236;2023-03-14T04:04:13;8.90;99.90
44277;DHT22;29973;43.742;1.236;2023-03-14T04:06:40;9.00;99.90
44277;DHT22;29973;43.742;1.236;2023-03-14T04:09:08;8.90;99.90
44277;DHT22;29973;43.742;1.236;2023-03-14T04:11:34;8.90;99.90
44277;DHT22;29973;43.742;1.236;2023-03-14T04:14:00;8.90;99.90
44277;DHT22;29973;43.742;1.236;2023-03-14T04:16:27;9.10;99.90
44277;DHT22;29973;43.742;1.236;2023-03-14T04:18:53;9.10;99.90
44277;DHT22;29973;43.742;1.236;2023-03-14T04:21:19;9.10;99.90
44277;DHT22;29973;43.742;1.236;2023-03-14T04:23:45;9.00;99.90
44277;DHT22;29973;43.742;1.236;2023-03-14T04:26:11;9.00;99.90
44277;DHT22;29973;43.742;1.236;2023-03-14T04:28:37;9.00;99.90
44277;DHT22;29973;43.742;1.236;2023-03-14T04:31:13;9.00;99.90
44277;DHT22;29973;43.742;1.236;2023-03-14T04:33:40;9.10;99.90
44277;DHT22;29973;43.742;1.236;2023-03-14T04:36:06;9.10;99.90
44277;DHT22;29973;43.742;1.236;2023-03-14T04:38:33;9.20;99.90
44277;DHT22;29973;43.742;1.236;2023-03-14T04:40:59;9.30;99.90
44277;DHT22;29973;43.742;1.236;2023-03-14T04:43:27;9.30;99.90
44277;DHT22;29973;43.742;1.236;2023-03-14T04:45:57;9.20;99.90
44277;DHT22;29973;43.742;1.236;2023-03-14T04:48:26;9.20;99.90
44277;DHT22;29973;43.742;1.236;2023-03-14T04:50:54;9.30;99.90
44277;DHT22;29973;43.742;1.236;2023-03-14T04:53:23;9.40;99.90
44277;DHT22;29973;43.742;1.236;2023-03-14T04:55:51;9.20;99.90
44277;DHT22;29973;43.742;1.236;2023-03-14T04:58:17;9.50;99.90
44277;DHT22;29973;43.742;1.236;2023-03-14T05:00:44;9.60;99.90
44277;DHT22;29973;43.742;1.236;2023-03-14T05:03:12;9.60;99.90
44277;DHT22;29973;43.742;1.236;2023-03-14T05:05:45;9.50;99.90
44277;DHT22;29973;43.742;1.236;2023-03-14T05:08:11;9.60;99.90
44277;DHT22;29973;43.742;1.236;2023-03-14T05:10:37;9.50;99.90
44277;DHT22;29973;43.742;1.236;2023-03-14T05:13:03;9.60;99.90
44277;DHT22;29973;43.742;1.236;2023-03-14T05:15:29;9.50;99.90
44277;DHT22;29973;43.742;1.236;2023-03-14T05:17:59;9.60;99.90
44277;DHT22;29973;43.742;1.236;2023-03-14T05:20:26;9.60;99.90
44277;DHT22;29973;43.742;1.236;2023-03-14T05:22:52;9.50;99.90
44277;DHT22;29973;43.742;1.236;2023-03-14T05:25:19;9.40;99.90
44277;DHT22;29973;43.742;1.236;2023-03-14T05:27:45;9.30;99.90
44277;DHT22;29973;43.742;1.236;2023-03-14T05:30:11;9.40;99.90
44277;DHT22;29973;43.742;1.236;2023-03-14T05:32:37;9.30;99.90
44277;DHT22;29973;43.742;1.236;2023-03-14T05:35:03;9.10;99.90
44277;DHT22;29973;43.742;1.236;2023-03-14T05:37:29;8.90;99.90
44277;DHT22;29973;43.742;1.236;2023-03-14T05:39:56;8.90;99.90
44277;DHT22;29973;43.742;1.236;2023-03-14T05:42:22;8.90;99.90
44277;DHT22;29973;43.742;1.236;2023-03-14T05:44:48;9.00;99.90
44277;DHT22;29973;43.742;1.236;2023-03-14T05:47:14;9.10;99.90
44277;DHT22;29973;43.742;1.236;2023-03-14T05:49:42;9.20;99.90
44277;DHT22;29973;43.742;1.236;2023-03-14T05:52:09;9.10;99.90
44277;DHT22;29973;43.742;1.236;2023-03-14T05:54:35;9.20;99.90
44277;DHT22;29973;43.742;1.236;2023-03-14T05:57:01;9.10;99.90
44277;DHT22;29973;43.742;1.236;2023-03-14T05:59:28;9.10;99.90
44277;DHT22;29973;43.742;1.236;2023-03-14T06:01:54;9.10;99.90
44277;DHT22;29973;43.742;1.236;2023-03-14T06:04:20;9.20;99.90
44277;DHT22;29973;43.742;1.236;2023-03-14T06:06:46;9.10;99.90
44277;DHT22;29973;43.742;1.236;2023-03-14T06:09:12;9.10;99.90
44277;DHT22;29973;43.742;1.236;2023-03-14T06:11:38;9.10;99.90
44277;DHT22;29973;43.742;1.236;2023-03-14T06:14:05;9.00;99.90
44277;DHT22;29973;43.742;1.236;2023-03-14T06:16:31;9.10;99.90
44277;DHT22;29973;43.742;1.236;2023-03-14T06:18:57;9.10;99.90
44277;DHT22;29973;43.742;1.236;2023-03-14T06:21:23;9.10;99.90
44277;DHT22;29973;43.742;1.236;2023-03-14T06:23:49;9.30;99.90
44277;DHT22;29973;43.742;1.236;2023-03-14T06:26:15;9.30;99.90
44277;DHT22;29973;43.742;1.236;2023-03-14T06:28:40;9.30;99.90
44277;DHT22;29973;43.742;1.236;2023-03-14T06:31:06;9.30;99.90
44277;DHT22;29973;43.742;1.236;2023-03-14T06:33:32;9.30;99.90
44277;DHT22;29973;43.742;1.236;2023-03-14T06:35:58;9.20;99.90
44277;DHT22;29973;43.742;1.236;2023-03-14T06:38:24;9.30;99.90
44277;DHT22;29973;43.742;1.236;2023-03-14T06:40:50;9.40;99.90
44277;DHT22;29973;43.742;1.236;2023-03-14T06:43:16;9.50;99.90
44277;DHT22;29973;43.742;1.236;2023-03-14T06:45:41;9.40;99.90
44277;DHT22;29973;43.742;1.236;2023-03-14T06:48:07;9.30;99.90
44277;DHT22;29973;43.742;1.236;2023-03-14T06:50:34;9.30;99.90
44277;DHT22;29973;43.742;1.236;2023-03-14T06:53:00;9.40;99.90
44277;DHT22;29973;43.742;1.236;2023-03-14T06:55:26;9.40;99.90
44277;DHT22;29973;43.742;1.236;2023-03-14T06:57:52;9.40;99.90
44277;DHT22;29973;43.742;1.236;2023-03-14T07:00:18;9.50;99.90
44277;DHT22;29973;43.742;1.236;2023-03-14T07:02:44;9.60;99.90
44277;DHT22;29973;43.742;1.236;2023-03-14T07:05:10;9.60;99.90
44277;DHT22;29973;43.742;1.236;2023-03-14T07:07:37;9.70;99.90
44277;DHT22;29973;43.742;1.236;2023-03-14T07:10:03;9.60;99.90
44277;DHT22;29973;43.742;1.236;2023-03-14T07:12:30;9.50;99.90
44277;DHT22;29973;43.742;1.236;2023-03-14T07:14:55;9.20;99.90
44277;DHT22;29973;43.742;1.236;2023-03-14T07:17:23;9.20;99.90
44277;DHT22;29973;43.742;1.236;2023-03-14T07:19:49;9.20;99.90
44277;DHT22;29973;43.742;1.236;2023-03-14T07:22:14;9.10;99.90
44277;DHT22;29973;43.742;1.236;2023-03-14T07:24:40;9.10;99.90
44277;DHT22;29973;43.742;1.236;2023-03-14T07:27:06;9.10;99.90
44277;DHT22;29973;43.742;1.236;2023-03-14T07:29:31;9.20;99.90
44277;DHT22;29973;43.742;1.236;2023-03-14T07:31:57;9.30;99.90
44277;DHT22;29973;43.742;1.236;2023-03-14T07:34:23;9.30;99.90
44277;DHT22;29973;43.742;1.236;2023-03-14T07:36:49;9.50;99.90
44277;DHT22;29973;43.742;1.236;2023-03-14T07:39:19;9.60;99.90
44277;DHT22;29973;43.742;1.236;2023-03-14T07:41:45;9.50;99.90
44277;DHT22;29973;43.742;1.236;2023-03-14T07:44:17;9.60;99.90
44277;DHT22;29973;43.742;1.236;2023-03-14T07:46:42;9.60;99.90
44277;DHT22;29973;43.742;1.236;2023-03-14T07:49:08;9.70;99.90
44277;DHT22;29973;43.742;1.236;2023-03-14T07:51:34;9.80;99.90
44277;DHT22;29973;43.742;1.236;2023-03-14T07:54:07;9.90;99.90
44277;DHT22;29973;43.742;1.236;2023-03-14T07:56:43;10.10;99.90
44277;DHT22;29973;43.742;1.236;2023-03-14T07:59:11;10.30;99.90
44277;DHT22;29973;43.742;1.236;2023-03-14T08:01:37;10.40;99.90
44277;DHT22;29973;43.742;1.236;2023-03-14T08:04:11;10.50;99.90
44277;DHT22;29973;43.742;1.236;2023-03-14T08:06:37;10.70;99.90
44277;DHT22;29973;43.742;1.236;2023-03-14T08:09:03;10.80;99.90
44277;DHT22;29973;43.742;1.236;2023-03-14T08:11:29;11.00;99.90
44277;DHT22;29973;43.742;1.236;2023-03-14T08:13:55;11.20;99.90
44277;DHT22;29973;43.742;1.236;2023-03-14T08:16:21;11.60;99.90
44277;DHT22;29973;43.742;1.236;2023-03-14T08:18:48;12.00;99.90
44277;DHT22;29973;43.742;1.236;2023-03-14T08:21:14;12.20;99.90
44277;DHT22;29973;43.742;1.236;2023-03-14T08:23:42;11.80;99.90
44277;DHT22;29973;43.742;1.236;2023-03-14T08:26:08;11.60;99.90
44277;DHT22;29973;43.742;1.236;2023-03-14T08:28:39;11.60;99.90
44277;DHT22;29973;43.742;1.236;2023-03-14T08:31:05;11.40;99.90
44277;DHT22;29973;43.742;1.236;2023-03-14T08:33:31;11.20;99.90
44277;DHT22;29973;43.742;1.236;2023-03-14T08:35:58;11.30;99.90
44277;DHT22;29973;43.742;1.236;2023-03-14T08:38:24;11.10;99.90
44277;DHT22;29973;43.742;1.236;2023-03-14T08:40:58;10.90;99.90
44277;DHT22;29973;43.742;1.236;2023-03-14T08:43:28;11.00;99.90
44277;DHT22;29973;43.742;1.236;2023-03-14T08:45:58;10.60;99.90
44277;DHT22;29973;43.742;1.236;2023-03-14T08:48:27;9.90;99.90
44277;DHT22;29973;43.742;1.236;2023-03-14T08:51:41;9.60;99.90
44277;DHT22;29973;43.742;1.236;2023-03-14T08:53:51;9.60;99.90
44277;DHT22;29973;43.742;1.236;2023-03-14T08:56:16;9.70;99.90
44277;DHT22;29973;43.742;1.236;2023-03-14T08:58:42;9.00;99.90
44277;DHT22;29973;43.742;1.236;2023-03-14T09:01:10;8.10;99.90
44277;DHT22;29973;43.742;1.236;2023-03-14T09:03:36;7.80;99.90
44277;DHT22;29973;43.742;1.236;2023-03-14T09:06:07;7.80;99.90
44277;DHT22;29973;43.742;1.236;2023-03-14T09:08:33;8.10;99.90
44277;DHT22;29973;43.742;1.236;2023-03-14T09:11:00;8.50;99.90
44277;DHT22;29973;43.742;1.236;2023-03-14T09:13:25;8.60;99.90
44277;DHT22;29973;43.742;1.236;2023-03-14T09:15:55;8.60;99.90
44277;DHT22;29973;43.742;1.236;2023-03-14T09:18:22;8.80;99.90
44277;DHT22;29973;43.742;1.236;2023-03-14T09:20:48;9.00;99.90
44277;DHT22;29973;43.742;1.236;2023-03-14T09:23:15;9.10;99.90
44277;DHT22;29973;43.742;1.236;2023-03-14T09:25:41;9.00;99.90
44277;DHT22;29973;43.742;1.236;2023-03-14T09:28:07;9.30;99.90
44277;DHT22;29973;43.742;1.236;2023-03-14T09:30:33;10.10;99.90
44277;DHT22;29973;43.742;1.236;2023-03-14T09:32:59;10.90;99.90
44277;DHT22;29973;43.742;1.236;2023-03-14T09:35:25;11.00;99.90
44277;DHT22;29973;43.742;1.236;2023-03-14T09:37:51;10.80;99.90
44277;DHT22;29973;43.742;1.236;2023-03-14T09:40:27;11.30;99.90
44277;DHT22;29973;43.742;1.236;2023-03-14T09:42:56;11.30;99.90
44277;DHT22;29973;43.742;1.236;2023-03-14T09:45:36;11.30;99.90
44277;DHT22;29973;43.742;1.236;2023-03-14T09:48:05;11.10;99.90
44277;DHT22;29973;43.742;1.236;2023-03-14T09:50:43;11.30;99.90
44277;DHT22;29973;43.742;1.236;2023-03-14T09:53:17;11.10;99.90
44277;DHT22;29973;43.742;1.236;2023-03-14T09:55:45;11.80;99.90
44277;DHT22;29973;43.742;1.236;2023-03-14T09:58:31;11.30;99.90
44277;DHT22;29973;43.742;1.236;2023-03-14T10:00:58;11.40;99.90
44277;DHT22;29973;43.742;1.236;2023-03-14T10:05:53;11.70;99.90
44277;DHT22;29973;43.742;1.236;2023-03-14T10:08:20;11.90;99.90
44277;DHT22;29973;43.742;1.236;2023-03-14T10:10:48;11.90;99.90
44277;DHT22;29973;43.742;1.236;2023-03-14T10:13:17;11.60;99.90
44277;DHT22;29973;43.742;1.236;2023-03-14T10:15:50;11.20;99.90
44277;DHT22;29973;43.742;1.236;2023-03-14T10:18:17;10.90;99.90
44277;DHT22;29973;43.742;1.236;2023-03-14T10:20:46;10.80;99.90
44277;DHT22;29973;43.742;1.236;2023-03-14T10:25:46;10.00;99.90
44277;DHT22;29973;43.742;1.236;2023-03-14T10:28:26;9.60;99.90
44277;DHT22;29973;43.742;1.236;2023-03-14T10:30:54;9.70;99.90
44277;DHT22;29973;43.742;1.236;2023-03-14T10:33:25;10.00;99.90
44277;DHT22;29973;43.742;1.236;2023-03-14T10:38:34;9.50;99.90
44277;DHT22;29973;43.742;1.236;2023-03-14T10:41:00;9.70;99.90
44277;DHT22;29973;43.742;1.236;2023-03-14T10:43:33;9.60;99.90
44277;DHT22;29973;43.742;1.236;2023-03-14T10:46:14;9.60;99.90
44277;DHT22;29973;43.742;1.236;2023-03-14T10:48:42;9.70;99.90
44277;DHT22;29973;43.742;1.236;2023-03-14T10:53:47;9.30;99.90
44277;DHT22;29973;43.742;1.236;2023-03-14T10:56:22;9.50;99.90
44277;DHT22;29973;43.742;1.236;2023-03-14T10:58:58;9.60;99.90
44277;DHT22;29973;43.742;1.236;2023-03-14T11:07:13;11.40;99.90
44277;DHT22;29973;43.742;1.236;2023-03-14T11:18:48;10.20;99.90
44277;DHT22;29973;43.742;1.236;2023-03-14T11:24:44;10.50;99.90
44277;DHT22;29973;43.742;1.236;2023-03-14T11:35:22;9.80;99.90
44277;DHT22;29973;43.742;1.236;2023-03-14T11:40:42;10.10;99.90
44277;DHT22;29973;43.742;1.236;2023-03-14T11:43:33;10.20;99.90
44277;DHT22;29973;43.742;1.236;2023-03-14T11:46:16;10.60;99.90
44277;DHT22;29973;43.742;1.236;2023-03-14T11:48:53;10.70;99.90
44277;DHT22;29973;43.742;1.236;2023-03-14T11:51:34;12.20;99.90
44277;DHT22;29973;43.742;1.236;2023-03-14T11:54:26;11.80;99.90
44277;DHT22;29973;43.742;1.236;2023-03-14T11:57:02;12.70;99.90
44277;DHT22;29973;43.742;1.236;2023-03-14T12:02:17;12.10;99.90
44277;DHT22;29973;43.742;1.236;2023-03-14T12:07:33;13.20;99.90
44277;DHT22;29973;43.742;1.236;2023-03-14T12:10:02;12.70;99.90
44277;DHT22;29973;43.742;1.236;2023-03-14T12:12:29;14.20;99.90
44277;DHT22;29973;43.742;1.236;2023-03-14T12:15:01;13.90;99.90
44277;DHT22;29973;43.742;1.236;2023-03-14T12:17:42;15.70;99.90
44277;DHT22;29973;43.742;1.236;2023-03-14T12:20:19;15.80;99.90
44277;DHT22;29973;43.742;1.236;2023-03-14T12:23:05;14.60;99.90
44277;DHT22;29973;43.742;1.236;2023-03-14T12:42:46;13.20;99.90
44277;DHT22;29973;43.742;1.236;2023-03-14T12:45:36;16.00;99.90
44277;DHT22;29973;43.742;1.236;2023-03-14T12:48:24;17.90;99.90
44277;DHT22;29973;43.742;1.236;2023-03-14T12:51:03;17.70;99.90
44277;DHT22;29973;43.742;1.236;2023-03-14T13:02:10;17.30;99.90
44277;DHT22;29973;43.742;1.236;2023-03-14T13:10:29;16.10;99.90
44277;DHT22;29973;43.742;1.236;2023-03-14T13:13:25;16.10;99.90
44277;DHT22;29973;43.742;1.236;2023-03-14T13:16:20;14.30;99.90
44277;DHT22;29973;43.742;1.236;2023-03-14T13:19:14;14.60;99.90
44277;DHT22;29973;43.742;1.236;2023-03-14T13:21:50;12.00;99.90
44277;DHT22;29973;43.742;1.236;2023-03-14T13:24:26;11.00;99.90
44277;DHT22;29973;43.742;1.236;2023-03-14T13:26:55;9.20;99.90
44277;DHT22;29973;43.742;1.236;2023-03-14T13:29:24;9.10;99.90
44277;DHT22;29973;43.742;1.236;2023-03-14T13:31:53;9.00;99.90
44277;DHT22;29973;43.742;1.236;2023-03-14T13:34:19;8.70;99.90
44277;DHT22;29973;43.742;1.236;2023-03-14T13:36:46;8.90;99.90
44277;DHT22;29973;43.742;1.236;2023-03-14T13:39:20;9.20;99.90
44277;DHT22;29973;43.742;1.236;2023-03-14T13:41:51;9.60;99.90
44277;DHT22;29973;43.742;1.236;2023-03-14T13:44:25;9.40;99.90
44277;DHT22;29973;43.742;1.236;2023-03-14T13:46:57;9.70;99.90
44277;DHT22;29973;43.742;1.236;2023-03-14T13:49:27;9.60;99.90
44277;DHT22;29973;43.742;1.236;2023-03-14T13:51:57;9.60;99.90
44277;DHT22;29973;43.742;1.236;2023-03-14T13:54:26;10.00;99.90
44277;DHT22;29973;43.742;1.236;2023-03-14T13:57:05;13.40;99.90
44277;DHT22;29973;43.742;1.236;2023-03-14T13:59:33;12.40;99.90
44277;DHT22;29973;43.742;1.236;2023-03-14T14:02:03;15.30;99.90
44277;DHT22;29973;43.742;1.236;2023-03-14T14:04:34;15.80;99.90
44277;DHT22;29973;43.742;1.236;2023-03-14T14:07:08;15.60;99.90
44277;DHT22;29973;43.742;1.236;2023-03-14T14:09:46;16.60;99.90
44277;DHT22;29973;43.742;1.236;2023-03-14T14:12:25;15.70;99.90
44277;DHT22;29973;43.742;1.236;2023-03-14T14:15:28;17.00;99.90
44277;DHT22;29973;43.742;1.236;2023-03-14T14:18:01;14.40;99.90
44277;DHT22;29973;43.742;1.236;2023-03-14T14:23:32;11.90;99.90
44277;DHT22;29973;43.742;1.236;2023-03-14T14:25:59;12.40;99.90
44277;DHT22;29973;43.742;1.236;2023-03-14T14:28:33;12.60;99.90
44277;DHT22;29973;43.742;1.236;2023-03-14T14:31:19;12.20;99.90
44277;DHT22;29973;43.742;1.236;2023-03-14T14:34:21;11.40;99.90
44277;DHT22;29973;43.742;1.236;2023-03-14T14:36:49;11.00;99.90
44277;DHT22;29973;43.742;1.236;2023-03-14T14:39:37;10.40;99.90
44277;DHT22;29973;43.742;1.236;2023-03-14T14:42:12;10.30;99.90
44277;DHT22;29973;43.742;1.236;2023-03-14T14:44:38;10.00;99.90
44277;DHT22;29973;43.742;1.236;2023-03-14T14:47:13;10.10;99.90
44277;DHT22;29973;43.742;1.236;2023-03-14T14:49:39;9.90;99.90
44277;DHT22;29973;43.742;1.236;2023-03-14T14:52:17;10.10;99.90
44277;DHT22;29973;43.742;1.236;2023-03-14T14:57:25;10.30;99.90
44277;DHT22;29973;43.742;1.236;2023-03-14T15:00:00;11.40;99.90
44277;DHT22;29973;43.742;1.236;2023-03-14T15:02:39;11.70;99.90
44277;DHT22;29973;43.742;1.236;2023-03-14T15:05:18;11.40;99.90
44277;DHT22;29973;43.742;1.236;2023-03-14T15:07:44;13.20;99.90
44277;DHT22;29973;43.742;1.236;2023-03-14T15:10:17;14.10;99.90
44277;DHT22;29973;43.742;1.236;2023-03-14T15:12:44;15.20;99.90
44277;DHT22;29973;43.742;1.236;2023-03-14T15:15:13;15.10;99.90
44277;DHT22;29973;43.742;1.236;2023-03-14T15:17:39;14.60;99.90
44277;DHT22;29973;43.742;1.236;2023-03-14T15:20:18;16.20;99.90
44277;DHT22;29973;43.742;1.236;2023-03-14T15:22:59;16.40;99.90
44277;DHT22;29973;43.742;1.236;2023-03-14T15:25:30;14.40;99.90
44277;DHT22;29973;43.742;1.236;2023-03-14T15:28:01;14.50;99.90
44277;DHT22;29973;43.742;1.236;2023-03-14T15:30:37;15.80;99.90
44277;DHT22;29973;43.742;1.236;2023-03-14T15:33:08;15.90;99.90
44277;DHT22;29973;43.742;1.236;2023-03-14T15:36:05;16.30;99.90
44277;DHT22;29973;43.742;1.236;2023-03-14T15:42:10;17.00;99.90
44277;DHT22;29973;43.742;1.236;2023-03-14T15:56:23;15.10;99.90
44277;DHT22;29973;43.742;1.236;2023-03-14T16:02:31;12.10;99.90
44277;DHT22;29973;43.742;1.236;2023-03-14T16:04:57;11.50;99.90
44277;DHT22;29973;43.742;1.236;2023-03-14T16:07:22;11.40;99.90
44277;DHT22;29973;43.742;1.236;2023-03-14T16:09:48;11.30;99.90
44277;DHT22;29973;43.742;1.236;2023-03-14T16:12:14;11.20;99.90
44277;DHT22;29973;43.742;1.236;2023-03-14T16:17:26;11.10;99.90
44277;DHT22;29973;43.742;1.236;2023-03-14T16:19:53;11.20;99.90
44277;DHT22;29973;43.742;1.236;2023-03-14T16:22:19;11.10;99.90
44277;DHT22;29973;43.742;1.236;2023-03-14T16:24:46;10.90;99.90
44277;DHT22;29973;43.742;1.236;2023-03-14T16:27:12;11.20;99.90
44277;DHT22;29973;43.742;1.236;2023-03-14T16:29:37;13.30;99.90
44277;DHT22;29973;43.742;1.236;2023-03-14T16:32:03;15.40;99.90
44277;DHT22;29973;43.742;1.236;2023-03-14T16:34:42;16.20;99.90
44277;DHT22;29973;43.742;1.236;2023-03-14T16:37:25;16.40;99.90
44277;DHT22;29973;43.742;1.236;2023-03-14T16:39:57;16.50;99.90
44277;DHT22;29973;43.742;1.236;2023-03-14T16:42:24;15.90;99.90
44277;DHT22;29973;43.742;1.236;2023-03-14T16:44:53;13.70;99.90
44277;DHT22;29973;43.742;1.236;2023-03-14T16:47:19;13.40;99.90
44277;DHT22;29973;43.742;1.236;2023-03-14T16:49:45;14.20;99.90
44277;DHT22;29973;43.742;1.236;2023-03-14T16:52:11;15.00;99.90
44277;DHT22;29973;43.742;1.236;2023-03-14T16:54:37;15.70;99.90
44277;DHT22;29973;43.742;1.236;2023-03-14T16:57:03;14.00;99.90
44277;DHT22;29973;43.742;1.236;2023-03-14T16:59:30;13.00;99.90
44277;DHT22;29973;43.742;1.236;2023-03-14T17:01:59;12.30;99.90
44277;DHT22;29973;43.742;1.236;2023-03-14T17:04:24;12.00;99.90
44277;DHT22;29973;43.742;1.236;2023-03-14T17:06:50;11.80;99.90
44277;DHT22;29973;43.742;1.236;2023-03-14T17:09:19;11.40;99.90
44277;DHT22;29973;43.742;1.236;2023-03-14T17:11:45;11.10;99.90
44277;DHT22;29973;43.742;1.236;2023-03-14T17:14:11;11.00;99.90
44277;DHT22;29973;43.742;1.236;2023-03-14T17:16:40;11.20;99.90
44277;DHT22;29973;43.742;1.236;2023-03-14T17:19:07;11.40;99.90
44277;DHT22;29973;43.742;1.236;2023-03-14T17:21:33;11.20;99.90
44277;DHT22;29973;43.742;1.236;2023-03-14T17:23:59;11.10;99.90
44277;DHT22;29973;43.742;1.236;2023-03-14T17:26:25;11.00;99.90
44277;DHT22;29973;43.742;1.236;2023-03-14T17:28:56;10.80;99.90
44277;DHT22;29973;43.742;1.236;2023-03-14T17:31:33;10.80;99.90
44277;DHT22;29973;43.742;1.236;2023-03-14T17:34:01;10.80;99.90
44277;DHT22;29973;43.742;1.236;2023-03-14T17:36:29;10.60;99.90
44277;DHT22;29973;43.742;1.236;2023-03-14T17:38:57;10.70;99.90
44277;DHT22;29973;43.742;1.236;2023-03-14T17:41:23;10.60;99.90
44277;DHT22;29973;43.742;1.236;2023-03-14T17:43:49;10.50;99.90
44277;DHT22;29973;43.742;1.236;2023-03-14T17:46:14;10.60;99.90
44277;DHT22;29973;43.742;1.236;2023-03-14T17:48:49;10.50;99.90
44277;DHT22;29973;43.742;1.236;2023-03-14T17:51:15;10.30;99.90